createdAt,value
2023-03-21T00:01:58.220Z,48.06
2023-03-21T00:04:33.186Z,47.50
2023-03-21T00:07:05.654Z,47.49
2023-03-21T00:09:33.098Z,47.28
2023-03-21T00:12:01.788Z,47.66
2023-03-21T00:14:30.857Z,47.62
2023-03-21T00:16:58.556Z,47.66
2023-03-21T00:19:26.686Z,47.79
2023-03-21T00:22:07.089Z,47.46
2023-03-21T00:24:36.546Z,47.40
2023-03-21T00:29:52.432Z,47.73
2023-03-21T00:32:21.561Z,47.68
2023-03-21T00:35:38.339Z,47.95
2023-03-21T00:37:37.662Z,47.66
2023-03-21T00:40:16.388Z,47.88
2023-03-21T00:42:51.178Z,47.57
2023-03-21T00:45:19.482Z,47.42
2023-03-21T00:47:47.083Z,47.65
2023-03-21T00:50:14.684Z,47.86
2023-03-21T00:52:42.634Z,47.80
2023-03-21T00:55:16.006Z,47.80
2023-03-21T00:57:47.466Z,47.68
2023-03-21T01:00:20.596Z,47.43
2023-03-21T01:03:08.595Z,47.60
2023-03-21T01:06:00.283Z,48.00
2023-03-21T01:08:35.211Z,47.81
2023-03-21T01:11:13.340Z,48.16
2023-03-21T01:13:53.055Z,47.57
2023-03-21T01:16:25.565Z,47.79
2023-03-21T01:18:53.492Z,47.79
2023-03-21T01:21:20.941Z,48.16
2023-03-21T01:23:48.746Z,48.26
2023-03-21T01:26:16.310Z,48.15
2023-03-21T01:28:45.723Z,48.34
2023-03-21T01:31:16.522Z,48.66
2023-03-21T01:33:44.396Z,48.03
2023-03-21T01:36:18.799Z,48.33
2023-03-21T01:38:49.331Z,47.99
2023-03-21T01:41:41.942Z,48.75
2023-03-21T01:44:18.827Z,48.20
2023-03-21T01:49:49.836Z,48.12
2023-03-21T01:52:39.302Z,47.93
2023-03-21T01:55:28.796Z,48.12
2023-03-21T01:58:07.590Z,48.23
2023-03-21T02:01:02.771Z,48.62
2023-03-21T02:03:50.687Z,48.18
2023-03-21T02:07:07.933Z,48.76
2023-03-21T02:09:46.906Z,48.18
2023-03-21T02:12:18.823Z,47.93
2023-03-21T02:14:52.388Z,48.39
2023-03-21T02:18:14.163Z,49.05
2023-03-21T02:21:08.613Z,48.60
2023-03-21T02:24:48.803Z,48.40
2023-03-21T02:27:24.522Z,48.20
2023-03-21T02:30:33.450Z,48.44
2023-03-21T02:33:08.647Z,48.13
2023-03-21T02:36:14.885Z,48.95
2023-03-21T02:39:11.737Z,48.35
2023-03-21T02:41:40.540Z,47.66
2023-03-21T02:44:28.802Z,48.58
2023-03-21T02:47:06.230Z,48.43
2023-03-21T02:50:19.656Z,48.04
2023-03-21T02:52:48.805Z,47.54
2023-03-21T02:55:24.374Z,48.13
2023-03-21T02:58:11.706Z,47.74
2023-03-21T03:01:38.296Z,48.77
2023-03-21T03:04:27.869Z,47.95
2023-03-21T03:07:24.705Z,48.70
2023-03-21T03:10:09.264Z,48.20
2023-03-21T03:12:48.834Z,47.75
2023-03-21T03:16:07.826Z,48.49
2023-03-21T03:18:54.514Z,48.78
2023-03-21T03:21:43.509Z,48.88
2023-03-21T03:24:27.519Z,49.00
2023-03-21T03:27:10.449Z,48.36
2023-03-21T03:29:44.304Z,48.78
2023-03-21T03:32:21.477Z,48.47
2023-03-21T03:34:56.537Z,48.66
2023-03-21T03:37:32.252Z,48.17
2023-03-21T03:40:03.299Z,48.37
2023-03-21T03:42:36.457Z,48.85
2023-03-21T03:45:14.746Z,48.19
2023-03-21T03:48:13.166Z,49.12
2023-03-21T03:51:01.451Z,48.83
2023-03-21T03:54:19.392Z,48.40
2023-03-21T03:56:47.735Z,47.88
2023-03-21T03:59:22.053Z,48.10
2023-03-21T04:01:59.438Z,47.83
2023-03-21T04:04:29.349Z,47.75
2023-03-21T04:06:59.114Z,48.06
2023-03-21T04:09:43.177Z,47.63
2023-03-21T04:12:14.202Z,48.04
2023-03-21T04:14:53.331Z,47.63
2023-03-21T04:17:22.975Z,47.56
2023-03-21T04:19:55.590Z,47.52
2023-03-21T04:22:27.190Z,47.62
2023-03-21T04:24:54.752Z,47.55
2023-03-21T04:27:22.470Z,47.19
2023-03-21T04:30:25.174Z,46.88
2023-03-21T04:32:57.876Z,47.00
2023-03-21T04:35:28.527Z,46.92
2023-03-21T04:37:56.832Z,46.86
2023-03-21T04:40:25.679Z,47.30
2023-03-21T04:42:55.969Z,47.06
2023-03-21T04:45:23.550Z,47.11
2023-03-21T04:47:51.282Z,47.14
2023-03-21T04:50:18.996Z,47.13
2023-03-21T04:52:46.464Z,47.13
2023-03-21T04:55:14.760Z,47.18
2023-03-21T04:57:43.121Z,46.78
2023-03-21T05:00:11.393Z,46.96
2023-03-21T05:02:39.341Z,46.55
2023-03-21T05:05:11.311Z,46.88
2023-03-21T05:07:41.008Z,46.88
2023-03-21T05:10:11.986Z,46.79
2023-03-21T05:12:42.045Z,46.90
2023-03-21T05:15:10.026Z,46.91
2023-03-21T05:17:38.182Z,46.42
2023-03-21T05:20:11.421Z,46.60
2023-03-21T05:22:40.830Z,46.49
2023-03-21T05:25:13.410Z,46.53
2023-03-21T05:28:05.586Z,46.50
2023-03-21T05:30:34.105Z,46.61
2023-03-21T05:33:02.916Z,46.85
2023-03-21T05:35:31.406Z,46.59
2023-03-21T05:38:02.306Z,46.12
2023-03-21T05:40:34.533Z,46.76
2023-03-21T05:43:03.437Z,46.48
2023-03-21T05:45:31.234Z,46.50
2023-03-21T05:47:59.045Z,46.31
2023-03-21T05:50:32.332Z,46.55
2023-03-21T05:53:10.980Z,46.24
2023-03-21T05:55:39.018Z,46.52
2023-03-21T05:58:11.148Z,46.14
2023-03-21T06:00:45.964Z,46.31
2023-03-21T06:03:24.554Z,46.32
2023-03-21T06:06:10.750Z,45.91
2023-03-21T06:08:49.736Z,46.12
2023-03-21T06:11:38.106Z,46.43
2023-03-21T06:14:26.064Z,45.70
2023-03-21T06:17:20.298Z,45.71
2023-03-21T06:20:01.977Z,45.91
2023-03-21T06:22:35.827Z,46.04
2023-03-21T06:25:05.857Z,46.36
2023-03-21T06:27:34.595Z,45.69
2023-03-21T06:30:03.233Z,46.38
2023-03-21T06:32:41.776Z,46.34
2023-03-21T06:35:14.029Z,46.72
2023-03-21T06:37:42.742Z,46.22
2023-03-21T06:40:12.009Z,46.18
2023-03-21T06:42:40.539Z,46.30
2023-03-21T06:45:11.630Z,46.56
2023-03-21T06:47:39.628Z,46.76
2023-03-21T06:50:17.214Z,47.24
2023-03-21T06:52:45.872Z,47.02
2023-03-21T06:55:14.870Z,46.60
2023-03-21T06:57:45.862Z,46.37
2023-03-21T07:00:15.052Z,45.68
2023-03-21T07:02:48.309Z,45.33
2023-03-21T07:05:20.452Z,44.81
2023-03-21T07:07:48.788Z,44.13
2023-03-21T07:10:17.223Z,42.91
2023-03-21T07:12:54.475Z,41.90
2023-03-21T07:15:26.234Z,41.37
2023-03-21T07:17:53.991Z,42.11
2023-03-21T07:20:21.663Z,42.56
2023-03-21T07:22:49.755Z,43.01
2023-03-21T07:25:18.212Z,43.26
2023-03-21T07:28:16.941Z,44.07
2023-03-21T07:35:29.837Z,45.90
2023-03-21T07:37:57.578Z,45.61
2023-03-21T07:40:25.408Z,46.21
2023-03-21T07:42:53.102Z,46.43
2023-03-21T07:45:30.504Z,46.83
2023-03-21T07:47:57.998Z,47.11
2023-03-21T07:50:25.633Z,47.25
2023-03-21T07:52:53.271Z,47.48
2023-03-21T07:55:21.395Z,47.79
2023-03-21T07:57:52.657Z,48.34
2023-03-21T08:00:23.675Z,47.98
2023-03-21T08:02:58.778Z,48.93
2023-03-21T08:05:35.098Z,48.34
2023-03-21T08:08:04.077Z,48.18
2023-03-21T08:10:31.903Z,48.26
2023-03-21T08:12:59.408Z,48.58
2023-03-21T08:15:27.079Z,48.55
2023-03-21T08:18:10.360Z,49.39
2023-03-21T08:21:20.757Z,49.88
2023-03-21T08:24:34.564Z,49.14
2023-03-21T08:27:45.863Z,48.74
2023-03-21T08:30:56.843Z,48.61
2023-03-21T08:33:56.198Z,48.17
2023-03-21T08:37:13.503Z,48.07
2023-03-21T08:40:52.574Z,48.42
2023-03-21T08:44:56.305Z,49.12
2023-03-21T08:48:01.755Z,48.85
2023-03-21T09:06:11.337Z,52.17
2023-03-21T09:08:39.187Z,51.09
2023-03-21T09:11:07.066Z,50.36
2023-03-21T09:13:37.558Z,50.91
2023-03-21T09:16:48.855Z,51.61
2023-03-21T09:19:35.670Z,49.22
2023-03-21T09:22:04.764Z,48.67
2023-03-21T09:24:32.466Z,47.56
2023-03-21T09:27:00.800Z,46.29
2023-03-21T09:29:29.244Z,46.30
2023-03-21T09:31:57.713Z,46.49
2023-03-21T09:34:26.491Z,46.05
2023-03-21T09:36:56.684Z,46.55
2023-03-21T09:39:24.380Z,46.70
2023-03-21T09:42:04.180Z,45.94
2023-03-21T09:44:51.783Z,44.74
2023-03-21T09:47:34.942Z,42.91
2023-03-21T09:50:14.905Z,40.56
2023-03-21T09:52:55.765Z,37.43
2023-03-21T09:55:35.063Z,36.02
2023-03-21T09:58:28.421Z,34.50
2023-03-21T10:01:33.075Z,32.86
2023-03-21T10:04:04.996Z,31.60
2023-03-21T10:06:38.034Z,31.23
2023-03-21T10:09:28.344Z,31.57
2023-03-21T10:12:14.947Z,32.81
2023-03-21T10:14:45.633Z,34.22
2023-03-21T10:17:34.197Z,35.47
2023-03-21T10:20:16.282Z,37.18
2023-03-21T10:22:46.962Z,37.69
2023-03-21T10:25:56.639Z,38.68
2023-03-21T10:29:03.658Z,37.78
2023-03-21T10:32:20.804Z,38.28
2023-03-21T10:40:00.892Z,37.88
2023-03-21T10:42:36.822Z,37.85
2023-03-21T10:45:15.885Z,37.88
2023-03-21T10:47:44.385Z,36.83
2023-03-21T10:50:16.258Z,36.20
2023-03-21T10:53:37.516Z,35.82
2023-03-21T10:56:26.782Z,34.23
2023-03-21T10:58:58.995Z,32.12
2023-03-21T11:01:36.648Z,30.89
2023-03-21T11:04:14.044Z,28.69
2023-03-21T11:07:00.560Z,26.29
2023-03-21T11:13:26.819Z,21.70
2023-03-21T11:15:58.306Z,21.12
2023-03-21T11:19:21.809Z,20.04
2023-03-21T11:21:58.345Z,18.46
2023-03-21T11:24:31.859Z,17.68
2023-03-21T11:27:00.077Z,17.42
2023-03-21T11:29:32.919Z,16.58
2023-03-21T11:32:10.633Z,16.53
2023-03-21T11:34:53.830Z,16.09
2023-03-21T11:53:40.653Z,16.14
2023-03-21T11:56:26.224Z,15.46
2023-03-21T11:59:24.922Z,15.55
2023-03-21T12:02:22.036Z,15.72
2023-03-21T12:05:05.577Z,14.82
2023-03-21T12:08:01.790Z,14.86
2023-03-21T12:10:44.855Z,14.88
2023-03-21T12:13:32.126Z,15.22
2023-03-21T12:16:43.639Z,15.46
2023-03-21T12:19:26.371Z,15.72
2023-03-21T12:22:12.158Z,15.77
2023-03-21T12:24:51.037Z,15.81
2023-03-21T12:27:24.308Z,15.45
2023-03-21T12:30:01.094Z,15.06
2023-03-21T12:32:35.697Z,14.80
2023-03-21T12:35:27.794Z,14.14
2023-03-21T12:38:05.938Z,13.94
2023-03-21T12:40:42.109Z,13.88
2023-03-21T12:43:24.716Z,13.45
2023-03-21T12:46:01.902Z,13.92
2023-03-21T12:48:36.403Z,14.09
2023-03-21T12:51:08.582Z,14.19
2023-03-21T12:54:01.152Z,13.79
2023-03-21T12:57:05.923Z,15.40
2023-03-21T12:59:48.537Z,17.54
2023-03-21T13:02:18.619Z,20.59
2023-03-21T13:04:51.933Z,22.58
2023-03-21T13:07:25.321Z,23.70
2023-03-21T13:09:55.466Z,24.66
2023-03-21T13:12:39.006Z,26.25
2023-03-21T13:15:12.535Z,27.17
2023-03-21T13:17:59.086Z,28.05
2023-03-21T13:21:05.924Z,29.67
2023-03-21T13:24:01.132Z,29.90
2023-03-21T13:31:08.149Z,30.96
2023-03-21T13:38:10.976Z,31.67
2023-03-21T13:41:49.256Z,32.26
2023-03-21T13:45:37.835Z,31.88
2023-03-21T13:48:58.448Z,32.28
2023-03-21T13:51:29.355Z,32.41
2023-03-21T14:06:45.842Z,32.97
2023-03-21T14:09:29.065Z,33.36
2023-03-21T14:12:03.833Z,32.82
2023-03-21T14:14:40.416Z,33.40
2023-03-21T14:17:26.528Z,33.86
2023-03-21T14:19:56.780Z,33.42
2023-03-21T14:22:24.230Z,33.63
2023-03-21T14:25:02.438Z,34.02
2023-03-21T14:27:34.836Z,33.85
2023-03-21T14:30:03.564Z,33.72
2023-03-21T14:32:31.805Z,34.17
2023-03-21T14:35:01.906Z,33.86
2023-03-21T14:37:39.190Z,33.63
2023-03-21T14:40:19.431Z,33.72
2023-03-21T14:42:49.428Z,33.77
2023-03-21T14:45:48.511Z,33.68
2023-03-21T14:48:52.643Z,33.52
2023-03-21T14:51:26.465Z,33.47
2023-03-21T14:53:54.027Z,33.42
2023-03-21T14:56:25.294Z,33.60
2023-03-21T14:58:54.158Z,33.50
2023-03-21T15:01:32.230Z,33.42
2023-03-21T15:04:01.848Z,33.18
2023-03-21T15:06:42.485Z,33.78
2023-03-21T15:09:34.544Z,33.61
2023-03-21T15:16:07.590Z,33.52
2023-03-21T15:19:48.201Z,33.83
2023-03-21T15:35:16.936Z,33.23
2023-03-21T15:37:57.182Z,33.55
2023-03-21T15:40:31.060Z,33.40
2023-03-21T15:43:16.091Z,33.42
2023-03-21T15:45:53.473Z,33.49
2023-03-21T15:48:29.385Z,33.62
2023-03-21T15:51:06.386Z,33.86
2023-03-21T15:53:36.284Z,33.31
2023-03-21T15:56:16.632Z,33.73
2023-03-21T15:58:47.893Z,33.45
2023-03-21T16:01:18.952Z,33.79
2023-03-21T16:03:49.344Z,33.78
2023-03-21T16:06:22.145Z,33.44
2023-03-21T16:09:03.469Z,33.47
2023-03-21T16:11:43.089Z,33.86
2023-03-21T16:14:11.038Z,33.52
2023-03-21T16:16:38.754Z,33.57
2023-03-21T16:19:07.382Z,33.77
2023-03-21T16:21:38.240Z,33.99
2023-03-21T16:24:08.331Z,33.73
2023-03-21T16:26:39.736Z,33.87
2023-03-21T16:29:08.510Z,33.78
2023-03-21T16:31:37.264Z,33.77
2023-03-21T16:34:05.297Z,33.80
2023-03-21T16:36:37.148Z,33.78
2023-03-21T16:39:17.250Z,34.13
2023-03-21T16:41:45.998Z,33.81
2023-03-21T16:44:13.761Z,33.92
2023-03-21T16:46:41.303Z,34.15
2023-03-21T16:49:23.948Z,34.13
2023-03-21T16:51:52.654Z,34.06
2023-03-21T16:54:20.381Z,34.16
2023-03-21T16:56:51.649Z,34.51
2023-03-21T16:59:19.850Z,34.27
2023-03-21T17:01:48.846Z,34.63
2023-03-21T17:04:17.866Z,35.04
2023-03-21T17:06:49.301Z,35.08
2023-03-21T17:09:19.779Z,35.23
2023-03-21T17:11:47.782Z,35.24
2023-03-21T17:14:18.905Z,35.86
2023-03-21T17:16:46.727Z,36.07
2023-03-21T17:19:20.214Z,36.43
2023-03-21T17:21:47.786Z,36.52
2023-03-21T17:24:15.744Z,37.00
2023-03-21T17:26:43.512Z,37.53
2023-03-21T17:29:13.993Z,38.21
2023-03-21T17:31:42.510Z,38.33
2023-03-21T17:34:11.155Z,38.88
2023-03-21T17:36:41.311Z,39.39
2023-03-21T17:39:15.579Z,40.39
2023-03-21T17:41:43.306Z,40.14
2023-03-21T17:44:10.851Z,40.44
2023-03-21T17:46:38.533Z,40.78
2023-03-21T17:49:07.032Z,42.50
2023-03-21T17:51:34.673Z,43.76
2023-03-21T17:54:02.265Z,45.13
2023-03-21T17:56:36.562Z,46.60
2023-03-21T17:59:06.303Z,47.97
2023-03-21T18:01:35.746Z,47.87
2023-03-21T18:04:05.265Z,49.07
2023-03-21T18:06:34.685Z,50.18
2023-03-21T18:09:07.221Z,51.26
2023-03-21T18:11:34.874Z,51.60
2023-03-21T18:14:15.281Z,52.48
2023-03-21T18:16:44.705Z,53.12
2023-03-21T18:19:13.386Z,53.38
2023-03-21T18:21:45.378Z,54.13
2023-03-21T18:24:14.326Z,55.15
2023-03-21T18:26:43.640Z,55.34
2023-03-21T18:32:06.831Z,55.51
2023-03-21T18:34:38.732Z,57.22
2023-03-21T18:37:09.694Z,57.55
2023-03-21T18:39:38.366Z,57.45
2023-03-21T18:42:07.045Z,57.85
2023-03-21T18:44:39.060Z,58.30
2023-03-21T18:47:07.688Z,58.98
2023-03-21T18:52:24.029Z,59.53
2023-03-21T18:54:51.581Z,59.58
2023-03-21T18:57:37.485Z,59.87
2023-03-21T19:00:17.021Z,60.30
2023-03-21T19:02:48.099Z,61.09
2023-03-21T19:05:17.763Z,60.93
2023-03-21T19:07:46.592Z,60.81
2023-03-21T19:10:18.511Z,61.16
2023-03-21T19:12:54.853Z,63.03
2023-03-21T19:15:24.424Z,61.46
2023-03-21T19:20:46.259Z,63.14
2023-03-21T19:23:14.348Z,62.40
2023-03-21T19:25:43.893Z,62.31
2023-03-21T19:28:11.556Z,62.06
2023-03-21T19:30:39.538Z,62.10
2023-03-21T19:33:07.663Z,62.69
2023-03-21T19:35:37.511Z,62.51
2023-03-21T19:38:05.230Z,62.46
2023-03-21T19:40:32.990Z,62.56
2023-03-21T19:43:10.530Z,63.03
2023-03-21T19:45:48.276Z,62.59
2023-03-21T19:48:16.592Z,62.85
2023-03-21T19:51:20.203Z,63.04
2023-03-21T19:53:34.060Z,62.90
2023-03-21T19:56:03.850Z,62.74
2023-03-21T19:58:35.109Z,62.84
2023-03-21T20:01:02.690Z,62.80
2023-03-21T20:03:30.614Z,62.78
2023-03-21T20:06:07.045Z,64.94
2023-03-21T20:08:58.041Z,63.02
2023-03-21T20:11:23.176Z,63.18
2023-03-21T20:13:50.785Z,63.42
2023-03-21T20:16:21.452Z,63.34
2023-03-21T20:18:49.015Z,63.44
2023-03-21T20:21:18.438Z,63.61
2023-03-21T20:23:51.408Z,63.29
2023-03-21T20:26:19.761Z,63.40
2023-03-21T20:28:56.622Z,63.12
2023-03-21T20:31:35.537Z,63.17
2023-03-21T20:34:03.147Z,63.39
2023-03-21T20:36:40.122Z,63.37
2023-03-21T20:39:07.843Z,63.56
2023-03-21T20:41:35.460Z,63.44
2023-03-21T20:46:51.253Z,63.67
2023-03-21T20:49:23.024Z,63.22
2023-03-21T20:52:47.801Z,63.97
2023-03-21T20:54:38.463Z,65.57
2023-03-21T20:57:05.891Z,63.34
2023-03-21T20:59:33.779Z,63.68
2023-03-21T21:02:01.403Z,63.60
2023-03-21T21:04:55.842Z,64.43
2023-03-21T21:07:22.753Z,64.47
2023-03-21T21:09:50.524Z,63.86
2023-03-21T21:12:19.539Z,64.26
2023-03-21T21:14:48.290Z,63.95
2023-03-21T21:17:33.921Z,64.25
2023-03-21T21:20:16.948Z,64.66
2023-03-21T21:22:59.007Z,65.21
2023-03-21T21:25:30.676Z,64.10
2023-03-21T21:27:58.484Z,64.43
2023-03-21T21:30:25.918Z,64.61
2023-03-21T21:32:54.033Z,64.12
2023-03-21T21:35:22.503Z,64.34
2023-03-21T21:37:51.617Z,64.42
2023-03-21T21:40:20.747Z,64.38
2023-03-21T21:42:48.401Z,64.38
2023-03-21T21:45:16.088Z,64.81
2023-03-21T21:47:45.466Z,64.92
2023-03-21T21:50:14.411Z,65.06
2023-03-21T21:52:43.889Z,64.39
2023-03-21T21:55:13.202Z,64.62
2023-03-21T21:57:41.081Z,64.41
2023-03-21T22:00:13.753Z,64.56
2023-03-21T22:02:42.494Z,64.21
2023-03-21T22:05:10.649Z,64.49
2023-03-21T22:07:39.289Z,64.32
2023-03-21T22:10:08.140Z,64.63
2023-03-21T22:12:35.737Z,64.47
2023-03-21T22:15:05.427Z,64.69
2023-03-21T22:17:33.455Z,64.47
2023-03-21T22:20:06.531Z,64.96
2023-03-21T22:22:34.969Z,64.45
2023-03-21T22:25:03.895Z,64.59
2023-03-21T22:27:31.746Z,64.74
2023-03-21T22:30:04.926Z,64.75
2023-03-21T22:32:37.993Z,65.24
2023-03-21T22:35:07.060Z,64.91
2023-03-21T22:37:36.800Z,65.17
2023-03-21T22:40:08.228Z,64.98
2023-03-21T22:42:39.819Z,65.55
2023-03-21T22:45:09.364Z,65.38
2023-03-21T22:47:37.530Z,65.28
2023-03-21T22:50:06.316Z,65.31
2023-03-21T22:52:33.991Z,65.17
2023-03-21T22:55:01.623Z,65.34
2023-03-21T22:57:30.742Z,65.08
2023-03-21T22:59:58.380Z,65.51
2023-03-21T23:02:26.080Z,65.21
2023-03-21T23:04:53.482Z,65.77
2023-03-21T23:07:21.277Z,65.86
2023-03-21T23:09:48.837Z,65.61
2023-03-21T23:12:17.585Z,66.28
2023-03-21T23:14:45.357Z,66.10
2023-03-21T23:17:12.837Z,66.06
2023-03-21T23:19:41.151Z,66.17
2023-03-21T23:22:09.030Z,66.21
2023-03-21T23:24:36.470Z,66.12
2023-03-21T23:27:04.106Z,66.12
2023-03-21T23:29:31.622Z,66.36
2023-03-21T23:31:59.140Z,66.36
2023-03-21T23:34:28.095Z,66.44
2023-03-21T23:36:55.562Z,66.50
2023-03-21T23:39:23.080Z,66.54
2023-03-21T23:41:50.642Z,66.38
2023-03-21T23:44:18.178Z,66.70
2023-03-21T23:46:45.909Z,66.70
2023-03-21T23:49:15.131Z,67.01
2023-03-21T23:51:42.827Z,66.60
2023-03-21T23:54:10.788Z,66.89
2023-03-21T23:56:38.269Z,67.17
2023-03-21T23:59:06.367Z,66.96
